Terminal Aerodrome Forecast
Issued by NWS Portland, OR

Home | Current Version | Previous Version | Text Only | Print | Product List | Glossary On
Versions: 1 2 3 4 5 6 7 8 9 10 11 12 13 14 15 16 17 18 19 20 21 22 23 24 25
000
FTUS46 KPQR 150522
TAFHIO
TAF
KHIO 150522Z 1506/1606 VRB03KT P6SM FEW025 SCT050
     FM151200 VRB03KT 6SM FU FEW012 SCT025
     FM151900 VRB03KT P6SM FEW025 SCT050=

USA.gov is the U.S. government's official web portal to all federal, state and local government web resources and services.